RESULTATS »

INSCRITS PRESENTATS ACABEN RETIRATS DESQUALIFICATS DIST. TRAM 1 DIST. TRAM 2 DIST. TRAM 3 TEMP. EXT TEMP. AIGUA
527 463 450 13 0 750 20 5 11 14

CLASSIFICACIÓ

MASCULÍ FEMENÍ CATEGORIES CLUBS (MASCULINA) CLUBS (FEMENINA) INDIVIDUALS GRUPS D'EDAT

LLOCDORSALNOMCLUBCAT.T.META| P.Tram 1 || P.Tram 2 |Km/hTEMPS| P.Tram 3 |PARC_1PARC_2
1 33SARA LOEHR MUÑOZASS ESPORTIVA ROCKETSABF01:03:507300:10:266200:34:5834.3200:45:246000:18:260:00:000:00:00
2 5143MARTA SANCHEZ HERNANDEZC.N. VIC-ETBSUB23F01:04:361700:09:2610400:36:0533.2600:45:319700:19:050:00:000:00:00
3 40ANNA FLAQUER PORTIFASTTRIATLON - C.N. MONTJSUB23F01:05:534200:10:0314300:37:1032.2900:47:137900:18:400:00:000:00:00
4 47MERITXELL VELASCO AYGUASAFASTTRIATLON - C.N. MONTJSUB23F01:06:104800:10:1313200:36:5432.5200:47:079300:19:030:00:000:00:00
5 101ANDREA LOPEZ RAMENTOLTRIACTIV LANZAROTECDF01:07:304900:10:1413500:36:5932.4500:47:1317200:20:170:00:000:00:00
6 3516NURIA PEIX TARRESC.N. VIC-ETBABF01:08:174600:10:0614500:37:1332.2400:47:1922800:20:580:00:000:00:00
7 5080PAULA BATLLE I PLANTADACERDANYOLA CHJNF01:08:505000:10:1417500:37:5931.5900:48:1320100:20:370:00:000:00:00
8 60ANABEL GRACIA GARASAFASTTRIATLON - C.N. MONTJV1F01:08:5810700:11:0514400:37:1132.2700:48:1620700:20:420:00:000:00:00
9 3579ANNA SUBIRANA FRIGOLACLUB ATLETIC PALAFRUGELLABF01:09:187000:10:2519500:38:3631.0900:49:0117000:20:170:00:000:00:00
10 5027MARTA ROMANCE OMSC.N. SABADELLCDF01:09:4612800:11:2317000:37:5331.6800:49:1619100:20:300:00:000:00:00
11 64GEMMA DIAZ RUIZPRAT TRIATLO 1994CDF01:10:326900:10:2518900:38:2931.1800:48:5426000:21:380:00:000:00:00
12 1838MARIA ANDREU OLIVERASC.N. MATAROCDF01:12:374700:10:0825400:40:3129.6200:50:3928800:21:580:00:000:00:00
13 45LAIA CONESA I MURFASTTRIATLON - C.N. MONTJJNF01:13:199000:10:4526500:40:5129.3800:51:3626700:21:430:00:000:00:00
14 4077MARTA MARTIN ALEGREINDEPENDENTABF01:13:3523800:13:1924200:40:0829.9000:53:2716000:20:080:00:000:00:00
15 3501MIRIAM CODINA CASTILLOCLUB TRIATLO GRANOLLERSABF01:13:5319400:12:3323700:39:5430.0800:52:2724800:21:260:00:000:00:00
16 1833CLARA AULINAS PRATCLUB NATACIO OLOTCDF01:14:135400:10:1733000:43:1027.8000:53:2721300:20:460:00:000:00:00
17 5171CRISTINA CLERIES VILAMAJOCLUB TRIATLO BLANESABF01:14:1922400:13:0220900:39:0330.7300:52:0529700:22:140:00:000:00:00
18 4034MARIA FIOL AIXARCHCLUB ATLETIC PALAFRUGELLV1F01:15:125300:10:1629200:41:4528.7400:52:0134200:23:110:00:000:00:00
19 1815BELÉN SALOMONI SCHWABC.N. VIC-ETBABF01:15:4815000:12:0725800:40:4429.4600:52:5132900:22:570:00:000:00:00
20 6032ANA MORACHO VELASCOFASTTRIATLON - C.N. MONTJABF01:16:4918600:12:2929800:41:5928.5800:54:2830200:22:210:00:000:00:00
21 1844MIREIA ALVAREZ MATALLANAC.N. MATAROCDF01:17:0211300:11:1228800:41:4128.7900:52:5337600:24:090:00:000:00:00
22 34JUDITH ANDUJAR PIÑOLCLUB TRIATLO GRANOLLERSABF01:17:3720100:12:3731600:42:4028.1300:55:1730100:22:200:00:000:00:00
23 3585MARTA COSANO BOFILLCLUB NATACIO BARCELONAJNF01:18:1410300:11:0134800:44:0827.1900:55:0933400:23:050:00:000:00:00
24 6214SOFIA AGUAYO MAURIPRAT TRIATLO 1994JNF01:18:399700:10:5137900:45:5126.1700:56:4228600:21:570:00:000:00:00
25 50YAZMIN DEL MAR SANCHIS BOC.N. TERRASSA-CICLES MOREJNF01:18:5719900:12:3432600:42:5927.9200:55:3335100:23:240:00:000:00:00
26 5019CORAL MONTAÑA PONSACLUB TRIATLO GRANOLLERSV1F01:18:5928800:13:5430300:42:1828.3700:56:1232200:22:470:00:000:00:00
27 128SAMANTHA ARISTA RIVASC.N. SABADELLJNF01:19:4823500:13:1733100:43:1127.7900:56:2834700:23:200:00:000:00:00
28 5059ROSER PLADEVALL IZARDC.N. SABADELLABF01:19:5321100:12:4832000:42:4828.0400:55:3638000:24:170:00:000:00:00
29 4002LARA AZNAR BELTRANCLUB NATACIO BARCELONACDF01:19:555600:10:1738600:46:1325.9600:56:3035300:23:250:00:000:00:00
30 6066MARIA FONTANALS I COLLCLUB NATACIO BARCELONAJNF01:20:2810400:11:0236900:45:1726.5000:56:1937700:24:090:00:000:00:00
31 1832CARLA PLAYA CAVALLEC.N. SABADELLABF01:20:2939500:15:5234600:43:5527.3200:59:4720800:20:420:00:000:00:00
32 6113AMAYA PRAT LURITRIATLO L´HOSPITALETABF01:21:0532900:14:3227100:41:1029.1500:55:4239700:25:230:00:000:00:00
33 1812CAROLINA AYZA DONATOCLUB TRIATLO GRANOLLERSABF01:21:4218800:12:2938300:46:0726.0200:58:3633700:23:060:00:000:00:00
34 5093ISA GAVINA TROYTIÑO PÉREZCLUB TRITRAININGABF01:22:0031600:14:1435900:44:4826.7900:59:0233000:22:580:00:000:00:00
35 6043ALICIA CONDE LÓPEZC.E. VILA OLIMPICAABF01:22:0738400:15:3535200:44:1627.1100:59:5129800:22:160:00:000:00:00
36 5182ANNA CODINA PADRÓS C.A. LES TORTUGUESABF01:22:2840600:16:1431100:42:3128.2200:58:4536400:23:430:00:000:00:00
37 6213MONTSE GÓMEZ RAMIREZCLUB TRI5UABF01:22:4325600:13:3238800:46:1925.9100:59:5132600:22:520:00:000:00:00
38 6111IRENE SANCHEZ ALBERTCLUB ATLETIC CASTELLARSUB23F01:23:1720300:12:4039500:46:5825.5500:59:3836200:23:390:00:000:00:00
39 3537ALBA AMAT FERNÀNDEZC.N. CATALUNYAJNF01:23:2521500:12:5039900:47:0825.4600:59:5835500:23:270:00:000:00:00
40 5048MIRIAM MURILLO BLAZQUEZC.E. NO TE PARESSUB23F01:23:4619800:12:3436100:44:5526.7200:57:2941500:26:170:00:000:00:00
41 6008NATÀLIA VALLS RUIZCLUB TRIBANDA TRIATLOABF01:24:0434100:14:4738500:46:0826.0101:00:5534000:23:090:00:000:00:00
42 5108MARIA ESPINOSA DEL ALBACLUB NATACIO BARCELONACDF01:24:4712900:11:2439300:46:4625.6600:58:1042000:26:370:00:000:00:00
43 1941CRISTINA MARTINEZ RUBIOC.N. VIC-ETBABF01:25:2530900:14:0836200:45:0526.6200:59:1341400:26:120:00:000:00:00
44 3554MATILDE MUÑOZ RICOCLUB TRIATLO I RUN WITH LV1F01:25:2839900:15:5839600:47:0125.5201:02:5930400:22:290:00:000:00:00
45 4004Mª JESUS SANTOS BLANCHCLUB TRIATLO BADIA DEL VAV1F01:26:0118400:12:2842900:50:5123.6001:03:1931500:22:420:00:000:00:00
46 6202MARINA GARCIA LOPEZCLUB ESPORTIU PRORUNNERSABF01:26:1040500:16:1038200:46:0526.0401:02:1537300:23:550:00:000:00:00
47 1842CLÀUDIA JÚDEZ CLAPÉSPRAT TRIATLO 1994JNF01:26:1932700:14:3138700:46:1625.9401:00:4740100:25:320:00:000:00:00
48 7121EMMA SHALLCROSSLLICENCIA DE DIAABF01:26:3017400:12:2140500:47:4625.1201:00:0741600:26:230:00:000:00:00
49 8025ARIADNA MARIN LLORENSLLICENCIA DE DIAV1F01:27:2942300:17:1240000:47:0925.4501:04:2133900:23:080:00:000:00:00
50 122INES MESTRE CARRASCOCLUB TRIATLO BLANESABF01:27:3635400:15:0439800:47:0425.5001:02:0840000:25:280:00:000:00:00
51 4090NURIA SANTOS CAÑIZARESCLUB ESPORTIU PRORUNNERSV1F01:28:1142100:17:1137800:45:5026.1801:03:0139300:25:100:00:000:00:00
52 55SONIA RODRIGUEZ FRAMISCLUB TRIATLO BLANESV1F01:28:3540400:16:0939000:46:2225.8801:02:3141000:26:040:00:000:00:00
53 3513RAQUEL SÁNCHEZ TIENDACLUB TRIATLO BADIA DEL VAABF01:28:3740200:16:0541000:48:0424.9701:04:0938700:24:280:00:000:00:00
54 5033MIREIA PÉREZ GARCÍAABSOLUT SPORTJNF01:28:5836700:15:2341500:48:3624.6901:03:5939100:24:590:00:000:00:00
55 6035IRENE PEREZ TORRESINDEPENDENTCDF01:29:0834300:14:4940400:47:4425.1401:02:3341800:26:350:00:000:00:00
56 1849TONA RIBAS DUCHC.E. VILA OLIMPICAV2F01:29:1138100:15:3242700:49:5024.0801:05:2236900:23:490:00:000:00:00
57 6121SARA PÉREZ CAMPILLOCLUB NATACIO SALLENTSUB23F01:29:3043500:17:4540100:47:2025.3501:05:0538200:24:250:00:000:00:00
58 5086SUSANNE MARTINEZ GARCIACLUB TRITRAININGV1F01:29:3125700:13:3342100:49:0924.4201:02:4242400:26:490:00:000:00:00
59 6073M. VICTORIA LEON RODRIGUEINDEPENDENTV1F01:29:3343000:17:3641300:48:3324.7201:06:0935200:23:240:00:000:00:00
60 1851MARTA SANCHEZ SALINASCLUB TRIATLO L´EIX DE NAVV1F01:29:4242800:17:3240700:47:4925.1001:05:2138100:24:210:00:000:00:00
61 6062MIRIAM CATALÁN GILC.E. RAYOTEAMABF01:30:4936500:15:1840800:47:5825.0201:03:1643100:27:330:00:000:00:00
62 7118MAITE MIR PONSLLICENCIA DE DIAABF01:30:4942600:17:3037600:45:3426.3401:03:0443200:27:450:00:000:00:00
63 6013LÍDIA PÉREZ RAMOSC.A. LES TORTUGUESABF01:31:2944300:18:4537400:45:2826.3901:04:1342900:27:160:00:000:00:00
64 38SARA GRACIA FERNANDEZC.N. BADALONASUB23F01:32:2327100:13:4843400:51:4723.1701:05:3542200:26:480:00:000:00:00
65 8030OIHANE URMENETA ZABALAAÑORGA K.K.E.ABF01:32:3732000:14:1837500:45:3426.3400:59:5244700:32:450:00:000:00:00
66 4089GEMA SEVILLANO ORDÓÑEZCLUB VO2 - SURALT1F01:32:3843100:17:3641900:48:5624.5201:06:3241200:26:060:00:000:00:00
67 8005MARTA SABATER MARTOSLLICENCIA DE DIAABF01:33:3518700:12:2944500:55:3921.5601:08:0839900:25:270:00:000:00:00
68 4067HELENA CANOVAS MORENOCLUB ESPORTIU PRORUNNERSV1F01:33:4944400:19:0441600:48:3724.6801:07:4141300:26:080:00:000:00:00
69 8013ANNA PORTA ABADLLICENCIA DE DIAV1F01:34:0143800:17:5642200:49:1424.3701:07:1042500:26:510:00:000:00:00
70 6114ESTER DE LA FUENTE ALMEIDC.E. VILA OLIMPICAABF01:34:0840100:16:0243900:52:3422.8301:08:3640200:25:320:00:000:00:00
71 5064BERTA HIJOS GAGOC.E. VILA OLIMPICAABF01:34:5742500:17:2743300:51:4423.2001:09:1140500:25:460:00:000:00:00
72 6028MARIA RODRIGUEZ ARIESCLUB ESPORTIU PRORUNNERSV1F01:35:1939400:15:4943800:52:3022.8601:08:1942600:27:000:00:000:00:00
73 6081MIREIA MCLEAN DANONC.N. SABADELLSUB23F01:37:0139100:15:4044300:55:3021.6201:11:1040700:25:510:00:000:00:00
74 107AIDA GRAU VENTURAC.A. LES TORTUGUESV1F01:39:5542700:17:3144000:53:0722.5901:10:3844100:29:170:00:000:00:00
75 3533LIDIA EXTREMERA RUIZCLUB ESPORTIU PRORUNNERSABF01:40:0543400:17:4344100:53:3622.3901:11:1943900:28:460:00:000:00:00
76 6124ANNA MORENO NAVARROCLUB NATACIO SALLENTSUB23F01:40:5244000:18:2744200:54:2222.0701:12:4943400:28:030:00:000:00:00
77 1927LAIA POCIELO LOHANCLUB TRITRAININGABF01:53:0244700:19:3444400:55:3421.6001:15:0844800:37:540:00:000:00:00






FEDERACIÓ CATALANA DE TRIATLÓ
SEU CENTRAL I CORRESPONDÈNCIA: Rambla Guipúscoa 23-25 2on-D · 08018 Barcelona · Tel / Fax : 93 307 93 35
ATENCIÓ AL PÚBLIC: Passeig Joan de Borbó, 93 (Club Natació Barcelona) · 08039 Barcelona · Tel / Fax : 93 307 93 32